Time;durP1;ratioP1;P1;durP2;ratioP2;P2;SDS_P1;SDS_P2;PMS_P1;PMS_P2;Temp;Humidity;BMP_temperature;BMP_pressure;BME280_temperature;BME280_humidity;BME280_pressure;Samples;Min_cycle;Max_cycle;Signal;HPM_P1;HPM_P2
2023/01/07 00:01:20;;;;;;;3.05;2.63;;;12.80;46.90;;;;;;5052416;28;20192;-50
2023/01/07 00:03:47;;;;;;;3.75;3.28;;;12.70;46.90;;;;;;5052409;28;20169;-51
2023/01/07 00:06:16;;;;;;;4.20;3.50;;;12.70;46.90;;;;;;5052476;28;20513;-51
2023/01/07 00:08:44;;;;;;;4.82;2.85;;;12.70;46.80;;;;;;5052374;28;20180;-50
2023/01/07 00:11:15;;;;;;;4.78;2.58;;;12.60;46.90;;;;;;5052326;28;20661;-50
2023/01/07 00:13:42;;;;;;;4.65;3.38;;;12.60;47.00;;;;;;5052325;28;20188;-50
2023/01/07 00:16:11;;;;;;;4.30;2.85;;;12.60;47.10;;;;;;5052052;28;20193;-51
2023/01/07 00:18:37;;;;;;;4.60;2.65;;;12.60;47.20;;;;;;5052104;28;20204;-50
2023/01/07 00:21:05;;;;;;;3.95;2.70;;;12.60;47.30;;;;;;5052098;28;20189;-51
2023/01/07 00:23:32;;;;;;;9.32;3.30;;;12.60;47.30;;;;;;5052113;28;20525;-50
2023/01/07 00:26:07;;;;;;;3.08;2.70;;;12.60;47.40;;;;;;5051889;28;20686;-51
2023/01/07 00:28:34;;;;;;;3.92;2.85;;;12.60;47.40;;;;;;5052093;28;20173;-50
2023/01/07 00:31:04;;;;;;;3.70;2.90;;;12.60;47.40;;;;;;5052111;28;20572;-51
2023/01/07 00:33:33;;;;;;;3.28;2.83;;;12.70;47.40;;;;;;5052170;28;20165;-51
2023/01/07 00:36:07;;;;;;;5.05;3.08;;;12.70;47.50;;;;;;5051854;28;20188;-51
2023/01/07 00:38:34;;;;;;;3.05;2.53;;;12.70;47.40;;;;;;5051842;28;20734;-51
2023/01/07 00:41:00;;;;;;;4.30;3.20;;;12.70;47.50;;;;;;5051913;28;20207;-51
2023/01/07 00:43:26;;;;;;;2.90;2.50;;;12.70;47.50;;;;;;5051981;28;20212;-51
2023/01/07 00:45:52;;;;;;;4.30;3.23;;;12.80;47.40;;;;;;5051847;28;20657;-51
2023/01/07 00:48:18;;;;;;;4.23;2.80;;;12.80;47.50;;;;;;5052094;28;20439;-51
2023/01/07 00:50:46;;;;;;;6.60;3.27;;;12.80;47.50;;;;;;5051814;28;20482;-50
2023/01/07 00:53:12;;;;;;;3.70;3.25;;;12.80;47.50;;;;;;5051951;28;20435;-51
2023/01/07 00:55:38;;;;;;;5.53;3.93;;;12.80;47.50;;;;;;5051574;28;20201;-51
2023/01/07 00:58:04;;;;;;;4.00;3.30;;;12.80;47.50;;;;;;5052759;28;20443;-51
2023/01/07 01:00:33;;;;;;;5.07;4.00;;;12.90;47.50;;;;;;5053676;28;20415;-51
2023/01/07 01:02:58;;;;;;;7.95;4.20;;;13.00;47.30;;;;;;5055821;28;20173;-51
2023/01/07 01:05:25;;;;;;;6.70;5.00;;;13.00;47.30;;;;;;5055589;28;20244;-51
2023/01/07 01:07:51;;;;;;;4.95;2.95;;;13.00;47.30;;;;;;5055714;28;20172;-51
2023/01/07 01:10:18;;;;;;;3.83;3.00;;;13.10;47.40;;;;;;5055562;28;20193;-51
2023/01/07 01:12:45;;;;;;;3.78;2.92;;;13.10;47.40;;;;;;5055651;28;20403;-51
2023/01/07 01:15:13;;;;;;;3.40;2.90;;;13.10;47.40;;;;;;5055424;28;20579;-51
2023/01/07 01:17:39;;;;;;;3.95;3.35;;;13.10;47.50;;;;;;5055654;28;20166;-51
2023/01/07 01:20:06;;;;;;;3.53;3.03;;;13.20;47.40;;;;;;5055344;28;20205;-51
2023/01/07 01:22:32;;;;;;;3.20;2.60;;;13.20;47.50;;;;;;5055500;28;20173;-51
2023/01/07 01:24:58;;;;;;;3.20;2.63;;;13.20;47.60;;;;;;5055247;28;20537;-51
2023/01/07 01:27:24;;;;;;;3.13;2.40;;;13.20;47.50;;;;;;5055359;28;20407;-51
2023/01/07 01:29:49;;;;;;;3.60;1.97;;;13.30;47.60;;;;;;5055284;28;20272;-51
2023/01/07 01:32:15;;;;;;;2.43;2.07;;;13.30;47.50;;;;;;5055307;28;20170;-51
2023/01/07 01:34:41;;;;;;;4.30;2.60;;;13.30;47.40;;;;;;5055075;28;20403;-51
2023/01/07 01:37:07;;;;;;;3.00;2.50;;;13.40;47.40;;;;;;5055204;28;20256;-51
2023/01/07 01:39:33;;;;;;;3.00;2.70;;;13.40;47.50;;;;;;5054895;28;20700;-51
2023/01/07 01:41:58;;;;;;;2.20;2.00;;;13.50;47.50;;;;;;5055144;28;20252;-50
2023/01/07 01:44:49;;;;;;;3.00;2.20;;;13.50;47.50;;;;;;5054921;28;20400;-51
2023/01/07 01:47:36;;;;;;;2.95;2.05;;;13.50;47.40;;;;;;5055322;28;20498;-50
2023/01/07 01:50:12;;;;;;;3.40;2.20;;;13.50;47.50;;;;;;5054889;28;20200;-51
2023/01/07 01:52:47;;;;;;;3.10;2.30;;;13.50;47.70;;;;;;5054961;28;20173;-51
2023/01/07 01:55:15;;;;;;;3.65;2.60;;;13.50;47.60;;;;;;5054710;28;20177;-51
2023/01/07 01:57:41;;;;;;;2.92;2.22;;;13.60;48.10;;;;;;5054951;28;20181;-51
2023/01/07 02:00:10;;;;;;;4.15;2.50;;;13.60;47.50;;;;;;5054602;28;20280;-51
2023/01/07 02:02:43;;;;;;;3.05;2.20;;;13.60;47.40;;;;;;5054677;28;20663;-51
2023/01/07 02:05:09;;;;;;;3.80;2.10;;;13.70;47.40;;;;;;5054517;28;20651;-51
2023/01/07 02:07:35;;;;;;;3.72;2.72;;;13.70;47.30;;;;;;5054737;28;20177;-51
2023/01/07 02:10:19;;;;;;;2.80;2.13;;;13.70;47.30;;;;;;5054532;28;20264;-51
2023/01/07 02:13:02;;;;;;;2.67;2.28;;;13.70;47.30;;;;;;5054369;28;20207;-50
2023/01/07 02:16:04;;;;;;;2.65;1.88;;;13.70;47.30;;;;;;5054330;28;20165;-51
2023/01/07 02:18:40;;;;;;;4.18;2.15;;;13.70;47.20;;;;;;5054293;28;20270;-50
2023/01/07 02:21:16;;;;;;;2.30;1.90;;;13.70;47.30;;;;;;5054150;28;20188;-51
2023/01/07 02:24:16;;;;;;;3.33;2.20;;;13.70;47.30;;;;;;5054357;28;20177;-51
2023/01/07 02:27:17;;;;;;;3.30;2.50;;;13.70;47.10;;;;;;5054257;28;20173;-51
2023/01/07 02:30:17;;;;;;;4.20;2.58;;;13.70;47.00;;;;;;5054222;28;20246;-51
2023/01/07 02:32:42;;;;;;;2.00;1.77;;;13.70;47.10;;;;;;5054238;28;20168;-51
2023/01/07 02:35:51;;;;;;;1.93;1.73;;;13.70;47.30;;;;;;5053849;28;20165;-50
2023/01/07 02:38:33;;;;;;;2.70;2.00;;;13.70;47.10;;;;;;5053921;28;20288;-51
2023/01/07 02:41:12;;;;;;;2.45;1.77;;;13.70;47.20;;;;;;5053946;28;20217;-51
2023/01/07 02:43:56;;;;;;;2.60;1.85;;;13.70;47.20;;;;;;5054095;28;20153;-51
2023/01/07 02:46:29;;;;;;;2.08;1.60;;;13.70;47.00;;;;;;5053710;28;20165;-51
2023/01/07 02:49:07;;;;;;;3.10;1.90;;;13.70;46.90;;;;;;5053877;28;20227;-51
2023/01/07 02:51:35;;;;;;;2.60;1.40;;;13.80;47.00;;;;;;5053892;28;20189;-51
2023/01/07 02:54:01;;;;;;;2.75;1.80;;;13.70;47.10;;;;;;5053767;28;20179;-51
2023/01/07 02:56:55;;;;;;;2.90;1.80;;;13.70;47.00;;;;;;5053480;28;20254;-51
2023/01/07 02:59:46;;;;;;;3.05;1.55;;;13.80;46.90;;;;;;5053562;28;20332;-50
2023/01/07 03:02:21;;;;;;;2.03;1.83;;;13.80;46.90;;;;;;5053622;28;20222;-51
2023/01/07 03:05:13;;;;;;;2.30;1.58;;;13.80;46.90;;;;;;5053233;28;20164;-51
2023/01/07 03:08:10;;;;;;;2.05;1.30;;;13.80;46.80;;;;;;5053513;28;20165;-51
2023/01/07 03:10:56;;;;;;;1.88;1.08;;;13.80;46.80;;;;;;5053428;28;20193;-51
2023/01/07 03:13:26;;;;;;;1.95;1.10;;;13.70;46.90;;;;;;5053410;28;20200;-51
2023/01/07 03:16:24;;;;;;;1.80;1.02;;;13.80;46.90;;;;;;5053217;28;20170;-51
2023/01/07 03:19:10;;;;;;;2.05;1.38;;;13.80;46.90;;;;;;5052886;28;20212;-51
2023/01/07 03:21:36;;;;;;;1.58;1.25;;;13.80;46.90;;;;;;5053212;28;20160;-50
2023/01/07 03:24:06;;;;;;;1.60;1.00;;;13.80;46.90;;;;;;5052377;28;20166;-51
2023/01/07 03:26:40;;;;;;;1.85;1.23;;;13.80;46.80;;;;;;5053060;28;20252;-51
2023/01/07 03:29:09;;;;;;;1.75;1.20;;;13.90;46.80;;;;;;5053117;28;20207;-51
2023/01/07 03:31:36;;;;;;;3.28;1.17;;;13.80;46.60;;;;;;5053078;28;20260;-50
2023/01/07 03:34:15;;;;;;;2.05;1.35;;;13.80;46.60;;;;;;5052890;28;20166;-51
2023/01/07 03:36:51;;;;;;;2.88;1.33;;;13.80;46.50;;;;;;5052958;28;20290;-51
2023/01/07 03:39:19;;;;;;;1.45;1.13;;;13.80;46.40;;;;;;5052788;28;20204;-51
2023/01/07 03:44:31;;;;;;;1.77;1.15;;;13.80;46.50;;;;;;5052931;28;20215;-51
2023/01/07 03:46:57;;;;;;;2.23;1.53;;;13.80;46.60;;;;;;5052840;28;20166;-50
2023/01/07 03:49:23;;;;;;;2.10;1.53;;;13.80;46.60;;;;;;5052755;28;20557;-51
2023/01/07 03:51:49;;;;;;;1.70;1.17;;;13.80;46.50;;;;;;5052719;28;20169;-51
2023/01/07 03:54:14;;;;;;;2.30;1.07;;;13.80;46.50;;;;;;5052619;28;20177;-50
2023/01/07 03:56:40;;;;;;;1.87;1.37;;;13.80;46.50;;;;;;5052626;28;20169;-51
2023/01/07 03:59:06;;;;;;;1.63;1.20;;;13.80;46.40;;;;;;5052381;28;20197;-51
2023/01/07 04:01:31;;;;;;;1.30;0.83;;;13.80;46.40;;;;;;5052584;28;20169;-51
2023/01/07 04:03:57;;;;;;;1.97;1.40;;;13.80;46.50;;;;;;5052568;28;20244;-51
2023/01/07 04:06:23;;;;;;;1.30;1.00;;;13.80;46.40;;;;;;5052311;28;20234;-51
2023/01/07 04:08:48;;;;;;;1.93;1.40;;;13.70;46.30;;;;;;5052526;28;20208;-50
2023/01/07 04:11:14;;;;;;;1.90;1.20;;;13.60;45.90;;;;;;5052418;28;20216;-51
2023/01/07 04:13:40;;;;;;;1.30;0.80;;;13.60;45.90;;;;;;5052277;28;20638;-51
2023/01/07 04:16:06;;;;;;;1.40;0.87;;;13.60;46.00;;;;;;5052084;28;20167;-51
2023/01/07 04:18:31;;;;;;;1.40;1.17;;;13.60;45.60;;;;;;5053109;28;20205;-51
2023/01/07 04:20:57;;;;;;;1.77;1.13;;;13.60;45.60;;;;;;5052165;28;20423;-50
2023/01/07 04:23:23;;;;;;;2.17;1.20;;;13.60;45.20;;;;;;5052251;28;20212;-51
2023/01/07 04:25:49;;;;;;;1.77;1.20;;;13.60;45.30;;;;;;5051959;28;20705;-51
2023/01/07 04:28:15;;;;;;;3.25;2.00;;;13.50;45.20;;;;;;5052052;28;20173;-51
2023/01/07 04:30:40;;;;;;;2.23;1.90;;;13.50;45.30;;;;;;5052001;28;20193;-51
2023/01/07 04:33:07;;;;;;;1.80;1.20;;;13.50;45.40;;;;;;5052051;28;20191;-50
2023/01/07 04:35:33;;;;;;;1.90;1.40;;;13.50;45.00;;;;;;5051687;28;20465;-50
2023/01/07 04:37:59;;;;;;;3.38;1.10;;;13.50;45.20;;;;;;5051787;28;20268;-51
2023/01/07 04:40:25;;;;;;;1.50;1.20;;;13.50;45.30;;;;;;5051991;28;20272;-51
2023/01/07 04:42:51;;;;;;;1.85;1.05;;;13.50;45.20;;;;;;5051937;28;20434;-51
2023/01/07 04:45:16;;;;;;;1.53;1.23;;;13.50;45.20;;;;;;5051768;28;20197;-51
2023/01/07 04:47:42;;;;;;;1.20;0.70;;;13.50;46.00;;;;;;5051863;28;20169;-50
2023/01/07 04:50:08;;;;;;;1.50;0.97;;;13.40;45.10;;;;;;5051853;28;20217;-51
2023/01/07 04:52:34;;;;;;;1.77;1.20;;;13.40;45.20;;;;;;5051934;28;20173;-50
2023/01/07 04:54:59;;;;;;;1.40;0.90;;;13.40;45.10;;;;;;5051611;28;20922;-51
2023/01/07 04:57:25;;;;;;;2.27;1.23;;;13.30;45.30;;;;;;5051771;28;20173;-50
2023/01/07 04:59:51;;;;;;;1.60;0.90;;;13.30;45.30;;;;;;5051662;28;20208;-50
2023/01/07 05:02:17;;;;;;;1.20;0.80;;;13.30;45.20;;;;;;5051957;28;20537;-51
2023/01/07 05:04:43;;;;;;;1.60;1.10;;;13.30;45.10;;;;;;5051606;28;20776;-50
2023/01/07 05:07:09;;;;;;;1.83;1.10;;;13.20;45.10;;;;;;5051726;28;20314;-51
2023/01/07 05:09:35;;;;;;;1.93;1.10;;;13.10;44.80;;;;;;5051678;28;20315;-50
2023/01/07 05:12:00;;;;;;;1.97;1.00;;;13.10;45.20;;;;;;5051672;28;20414;-51
2023/01/07 05:14:26;;;;;;;1.17;0.70;;;13.10;45.30;;;;;;5051494;28;20268;-50
2023/01/07 05:16:52;;;;;;;2.20;0.90;;;13.10;45.20;;;;;;5051593;28;20408;-50
2023/01/07 05:19:18;;;;;;;4.80;1.10;;;13.10;45.30;;;;;;5051533;28;20286;-51
2023/01/07 05:21:44;;;;;;;1.93;0.90;;;13.10;45.20;;;;;;5051641;28;20170;-50
2023/01/07 05:24:09;;;;;;;2.17;1.30;;;13.10;45.20;;;;;;5051610;28;20427;-50
2023/01/07 05:26:35;;;;;;;1.57;1.30;;;13.10;45.10;;;;;;5051330;28;20200;-50
2023/01/07 05:29:01;;;;;;;1.53;1.07;;;13.10;45.10;;;;;;5051540;28;20428;-51
2023/01/07 05:31:27;;;;;;;1.80;1.13;;;13.10;45.20;;;;;;5051507;28;20540;-51
2023/01/07 05:33:52;;;;;;;3.30;1.53;;;13.10;45.20;;;;;;5051510;28;20629;-51
2023/01/07 05:36:18;;;;;;;3.07;1.57;;;13.10;45.20;;;;;;5051193;28;20166;-51
2023/01/07 05:38:44;;;;;;;2.03;1.73;;;13.10;45.10;;;;;;5051222;28;20205;-51
2023/01/07 05:41:10;;;;;;;2.23;1.13;;;13.20;45.00;;;;;;5051288;28;20342;-51
2023/01/07 05:43:35;;;;;;;2.43;1.30;;;13.20;45.10;;;;;;5051512;28;20399;-51
2023/01/07 05:46:01;;;;;;;2.80;1.50;;;13.20;45.20;;;;;;5052194;28;20165;-50
2023/01/07 05:48:27;;;;;;;2.03;1.13;;;13.20;45.20;;;;;;5053716;28;20184;-51
2023/01/07 05:50:52;;;;;;;2.80;1.17;;;13.20;45.20;;;;;;5054906;28;20228;-50
2023/01/07 05:53:18;;;;;;;3.73;1.33;;;13.20;45.30;;;;;;5054891;28;20176;-50
2023/01/07 05:55:44;;;;;;;2.60;1.60;;;13.30;45.40;;;;;;5054680;28;20295;-51
2023/01/07 05:58:10;;;;;;;1.60;1.20;;;13.30;45.30;;;;;;5054807;28;20725;-51
2023/01/07 06:00:36;;;;;;;5.20;1.20;;;13.30;45.30;;;;;;5054774;28;20424;-50
2023/01/07 06:03:03;;;;;;;2.28;1.40;;;13.30;45.30;;;;;;5054827;28;20162;-50
2023/01/07 06:05:29;;;;;;;2.00;1.33;;;13.30;45.20;;;;;;5054509;28;20181;-51
2023/01/07 06:07:55;;;;;;;1.70;1.07;;;13.30;45.30;;;;;;5054666;28;20173;-50
2023/01/07 06:10:21;;;;;;;2.50;1.40;;;13.30;45.20;;;;;;5054490;28;20432;-51
2023/01/07 06:12:46;;;;;;;2.27;1.00;;;13.30;45.00;;;;;;5054519;28;20169;-51
2023/01/07 06:15:12;;;;;;;1.73;1.63;;;13.30;45.10;;;;;;5054308;28;20170;-50
2023/01/07 06:17:38;;;;;;;2.07;1.17;;;13.30;44.80;;;;;;5054460;28;20165;-51
2023/01/07 06:20:05;;;;;;;1.40;0.80;;;13.30;44.80;;;;;;5054366;28;20463;-50
2023/01/07 06:22:30;;;;;;;1.73;1.00;;;13.30;44.80;;;;;;5054455;28;20250;-51
2023/01/07 06:24:56;;;;;;;1.30;0.70;;;13.40;44.80;;;;;;5054080;28;20720;-51
2023/01/07 06:27:22;;;;;;;1.43;0.93;;;13.40;44.60;;;;;;5054416;28;20169;-51
2023/01/07 06:29:48;;;;;;;1.73;0.90;;;13.40;44.80;;;;;;5054239;28;20510;-51
2023/01/07 06:32:14;;;;;;;1.50;0.90;;;13.40;44.00;;;;;;5054324;28;20264;-51
2023/01/07 06:34:39;;;;;;;1.80;1.33;;;13.30;44.20;;;;;;5053971;28;20177;-50
2023/01/07 06:37:05;;;;;;;1.30;0.90;;;13.40;44.60;;;;;;5054108;28;20607;-51
2023/01/07 06:39:31;;;;;;;1.43;1.10;;;13.40;44.50;;;;;;5053815;28;20746;-51
2023/01/07 06:41:56;;;;;;;1.40;1.00;;;13.50;44.40;;;;;;5053979;28;20165;-51
2023/01/07 06:44:22;;;;;;;1.60;1.17;;;13.50;44.20;;;;;;5053726;28;20177;-51
2023/01/07 06:46:48;;;;;;;2.37;1.43;;;13.50;44.30;;;;;;5053878;28;20165;-50
2023/01/07 06:49:14;;;;;;;1.50;1.10;;;13.50;44.40;;;;;;5053785;28;20174;-50
2023/01/07 06:51:39;;;;;;;2.07;1.30;;;13.40;44.10;;;;;;5053812;28;20171;-50
2023/01/07 06:54:05;;;;;;;2.23;1.93;;;13.50;43.90;;;;;;5053666;28;20795;-51
2023/01/07 06:56:31;;;;;;;2.13;1.70;;;13.50;44.10;;;;;;5053556;28;20166;-51
2023/01/07 06:58:56;;;;;;;2.60;1.50;;;13.50;44.30;;;;;;5053578;28;20193;-50
2023/01/07 07:01:22;;;;;;;1.50;0.80;;;13.50;44.50;;;;;;5053578;28;20189;-50
2023/01/07 07:03:48;;;;;;;1.83;1.20;;;13.50;44.50;;;;;;5053594;28;20177;-51
2023/01/07 07:06:13;;;;;;;1.60;1.00;;;13.50;44.60;;;;;;5053375;28;20196;-51
2023/01/07 07:08:39;;;;;;;1.77;0.87;;;13.50;45.00;;;;;;5053556;28;20201;-50
2023/01/07 07:11:05;;;;;;;1.50;1.10;;;13.50;45.00;;;;;;5053451;28;20567;-51
2023/01/07 07:13:31;;;;;;;2.50;1.20;;;13.60;45.00;;;;;;5053462;28;20189;-51
2023/01/07 07:15:57;;;;;;;1.27;0.73;;;13.60;45.20;;;;;;5053212;28;20415;-50
2023/01/07 07:18:22;;;;;;;2.00;1.40;;;13.60;45.30;;;;;;5053282;28;20667;-51
2023/01/07 07:20:48;;;;;;;2.07;1.20;;;13.60;45.30;;;;;;5053199;28;20235;-50
2023/01/07 07:23:14;;;;;;;2.03;1.43;;;13.60;45.30;;;;;;5053184;28;20244;-51
2023/01/07 07:25:40;;;;;;;2.80;1.50;;;13.60;45.20;;;;;;5053062;28;20173;-51
2023/01/07 07:28:05;;;;;;;1.50;1.10;;;13.60;45.40;;;;;;5053146;28;20404;-50
2023/01/07 07:30:31;;;;;;;2.37;1.30;;;13.60;45.80;;;;;;5053124;28;20185;-51
2023/01/07 07:33:01;;;;;;;2.30;1.70;;;13.50;46.00;;;;;;5054007;28;20184;-51
2023/01/07 07:35:27;;;;;;;2.58;1.63;;;13.40;46.10;;;;;;5053036;28;20185;-51
2023/01/07 07:37:53;;;;;;;1.93;1.20;;;13.40;46.40;;;;;;5052740;28;20219;-50
2023/01/07 07:40:18;;;;;;;1.53;1.40;;;13.40;46.60;;;;;;5052695;28;20203;-50
2023/01/07 07:42:44;;;;;;;1.83;1.60;;;13.40;46.70;;;;;;5052892;28;20221;-51
2023/01/07 07:45:10;;;;;;;1.70;1.30;;;14.20;47.10;;;;;;5052622;28;20166;-50
2023/01/07 07:47:36;;;;;;;2.63;1.85;;;13.40;46.70;;;;;;5052781;28;20165;-51
2023/01/07 07:50:02;;;;;;;1.70;1.03;;;13.30;46.90;;;;;;5052704;28;20677;-50
2023/01/07 07:52:28;;;;;;;2.10;1.90;;;13.30;47.10;;;;;;5052670;28;20665;-50
2023/01/07 07:54:53;;;;;;;2.77;1.83;;;13.30;47.30;;;;;;5052436;28;20260;-51
2023/01/07 07:57:19;;;;;;;3.03;2.10;;;13.20;47.40;;;;;;5052631;28;20177;-51
2023/01/07 07:59:45;;;;;;;3.33;2.60;;;13.20;47.60;;;;;;5052357;28;20287;-50
2023/01/07 08:02:14;;;;;;;2.90;1.80;;;13.20;47.80;;;;;;5052500;28;20199;-50
2023/01/07 08:04:39;;;;;;;3.60;2.90;;;13.20;47.80;;;;;;5052357;28;20162;-50
2023/01/07 08:07:05;;;;;;;2.80;2.47;;;13.20;47.70;;;;;;5052319;28;20510;-50
2023/01/07 08:09:31;;;;;;;3.07;2.30;;;13.20;47.80;;;;;;5051898;28;20185;-51
2023/01/07 08:11:56;;;;;;;2.67;2.00;;;13.20;47.70;;;;;;5052275;28;20201;-50
2023/01/07 08:14:22;;;;;;;2.67;1.77;;;13.30;47.80;;;;;;5052139;28;20248;-50
2023/01/07 08:16:48;;;;;;;3.80;1.93;;;13.30;47.80;;;;;;5052266;28;20507;-50
2023/01/07 08:19:14;;;;;;;2.27;1.47;;;13.30;47.70;;;;;;5052099;28;20549;-50
2023/01/07 08:21:39;;;;;;;2.83;2.53;;;13.30;47.50;;;;;;5052233;28;20700;-50
2023/01/07 08:24:05;;;;;;;1.97;1.70;;;13.40;47.60;;;;;;5052086;28;20165;-51
2023/01/07 08:26:31;;;;;;;2.10;1.60;;;13.40;47.60;;;;;;5051906;28;20400;-51
2023/01/07 08:28:57;;;;;;;1.90;1.70;;;13.40;47.60;;;;;;5052103;28;20407;-50
2023/01/07 08:31:23;;;;;;;4.70;3.47;;;13.40;47.40;;;;;;5052012;28;20567;-51
2023/01/07 08:33:48;;;;;;;2.93;2.10;;;13.40;47.30;;;;;;5051937;28;20169;-51
2023/01/07 08:36:14;;;;;;;3.40;2.53;;;13.40;47.30;;;;;;5051674;28;20222;-50
2023/01/07 08:38:40;;;;;;;5.57;4.17;;;13.50;47.30;;;;;;5051800;28;20615;-51
2023/01/07 08:41:05;;;;;;;3.97;3.40;;;13.50;47.30;;;;;;5051844;28;20189;-50
2023/01/07 08:43:32;;;;;;;4.00;3.37;;;13.50;47.10;;;;;;5052037;28;20248;-50
2023/01/07 08:45:58;;;;;;;2.88;2.47;;;13.60;46.90;;;;;;5051761;28;20733;-51
2023/01/07 08:48:23;;;;;;;3.23;2.93;;;13.60;46.70;;;;;;5051870;28;20200;-50
2023/01/07 08:50:53;;;;;;;5.57;2.53;;;13.60;46.50;;;;;;5051736;28;20423;-51
2023/01/07 08:53:22;;;;;;;3.22;2.40;;;13.60;46.00;;;;;;5051758;28;20564;-51
2023/01/07 08:55:48;;;;;;;3.67;2.45;;;13.60;45.70;;;;;;5051676;28;20537;-51
2023/01/07 08:58:14;;;;;;;5.03;3.00;;;13.60;45.90;;;;;;5051757;28;20173;-51
2023/01/07 09:00:40;;;;;;;3.75;2.78;;;13.60;45.30;;;;;;5051699;28;20200;-51
2023/01/07 09:03:06;;;;;;;6.60;3.40;;;13.60;45.00;;;;;;5051679;28;20257;-50
2023/01/07 09:05:32;;;;;;;3.30;2.27;;;13.60;44.70;;;;;;5051493;28;20256;-51
2023/01/07 09:07:58;;;;;;;4.20;3.07;;;13.60;44.70;;;;;;5051737;28;20414;-51
2023/01/07 09:10:24;;;;;;;4.07;3.27;;;13.60;45.00;;;;;;5051521;28;20196;-51
2023/01/07 09:12:50;;;;;;;4.57;3.22;;;13.60;45.00;;;;;;5051638;28;20981;-51
2023/01/07 09:15:16;;;;;;;4.40;3.13;;;13.70;44.70;;;;;;5051490;28;20216;-51
2023/01/07 09:17:41;;;;;;;5.87;4.17;;;13.70;45.00;;;;;;5051577;28;20415;-50
2023/01/07 09:20:08;;;;;;;5.40;3.80;;;13.70;44.90;;;;;;5051462;28;20223;-50
2023/01/07 09:22:35;;;;;;;5.00;3.80;;;13.80;45.00;;;;;;5055258;28;20180;-51
2023/01/07 09:25:01;;;;;;;6.20;3.75;;;13.90;44.90;;;;;;5055178;28;20228;-51
2023/01/07 09:27:27;;;;;;;3.90;3.50;;;14.00;44.80;;;;;;5055435;28;20165;-51
2023/01/07 09:29:53;;;;;;;5.53;3.40;;;14.10;44.60;;;;;;5055216;28;20737;-50
2023/01/07 09:32:20;;;;;;;5.43;3.75;;;14.20;44.30;;;;;;5055277;28;20656;-51
2023/01/07 09:34:46;;;;;;;4.20;3.60;;;14.30;44.10;;;;;;5055028;28;20189;-51
2023/01/07 09:37:11;;;;;;;5.90;3.63;;;14.40;44.00;;;;;;5055220;28;20227;-51
2023/01/07 09:39:37;;;;;;;4.93;4.00;;;14.40;43.50;;;;;;5054794;28;20205;-50
2023/01/07 09:42:18;;;;;;;4.87;3.73;;;14.50;43.70;;;;;;5055098;28;20161;-51
2023/01/07 09:45:03;;;;;;;4.40;3.10;;;14.50;43.50;;;;;;5054935;28;20621;-50
2023/01/07 09:47:32;;;;;;;4.28;3.45;;;14.60;43.00;;;;;;5055137;28;20591;-51
2023/01/07 09:50:25;;;;;;;5.10;4.03;;;14.90;43.40;;;;;;5054945;28;20189;-51
2023/01/07 09:52:55;;;;;;;3.92;2.95;;;15.00;42.80;;;;;;5051653;28;20185;-51
2023/01/07 09:55:41;;;;;;;4.28;3.13;;;15.30;41.90;;;;;;5054606;28;20180;-50
2023/01/07 09:58:15;;;;;;;3.72;3.05;;;15.30;42.40;;;;;;5054744;28;20200;-51
2023/01/07 10:01:04;;;;;;;6.35;4.38;;;15.30;41.90;;;;;;5054788;28;20200;-51
2023/01/07 10:03:59;;;;;;;6.43;3.95;;;15.40;41.00;;;;;;5054733;28;20217;-51
2023/01/07 10:06:46;;;;;;;5.55;4.20;;;15.30;41.80;;;;;;5049083;28;20181;-51
2023/01/07 10:09:49;;;;;;;5.32;3.55;;;15.30;41.70;;;;;;5054580;28;20185;-49
2023/01/07 10:12:23;;;;;;;5.50;3.67;;;15.30;41.80;;;;;;5054551;28;20274;-50
2023/01/07 10:15:30;;;;;;;6.68;4.00;;;15.30;42.10;;;;;;5054238;28;20309;-51
2023/01/07 10:18:27;;;;;;;4.85;3.67;;;15.30;41.50;;;;;;5054123;28;20223;-50
2023/01/07 10:21:08;;;;;;;5.57;3.83;;;15.40;41.20;;;;;;5054293;28;20208;-50
2023/01/07 10:23:40;;;;;;;5.05;4.55;;;15.20;41.50;;;;;;5054340;28;20219;-50
2023/01/07 10:26:17;;;;;;;3.63;3.33;;;15.20;41.70;;;;;;5054154;28;20576;-51
2023/01/07 10:29:05;;;;;;;3.30;3.00;;;15.30;41.50;;;;;;5054243;28;20149;-50
2023/01/07 10:31:31;;;;;;;5.18;3.70;;;15.30;40.80;;;;;;5053883;28;20256;-50
2023/01/07 10:33:58;;;;;;;5.82;4.22;;;15.30;41.50;;;;;;5054099;28;20211;-50
2023/01/07 10:36:38;;;;;;;3.92;3.25;;;15.40;40.80;;;;;;5053970;28;20248;-50
2023/01/07 10:39:25;;;;;;;5.10;3.97;;;15.30;41.20;;;;;;5053729;28;20300;-50
2023/01/07 10:42:04;;;;;;;6.25;4.97;;;15.40;41.30;;;;;;5054007;28;20161;-50
2023/01/07 10:44:56;;;;;;;5.95;3.47;;;15.40;41.80;;;;;;5053801;28;20169;-50
2023/01/07 10:47:52;;;;;;;4.32;3.17;;;15.40;41.20;;;;;;5053861;28;20146;-50
2023/01/07 10:50:46;;;;;;;5.22;2.67;;;15.30;41.20;;;;;;5053903;28;20649;-50
2023/01/07 10:53:29;;;;;;;5.25;3.30;;;15.20;41.40;;;;;;5054364;28;20192;-50
2023/01/07 10:56:02;;;;;;;4.00;3.15;;;15.20;41.60;;;;;;5053525;28;20567;-50
2023/01/07 10:58:48;;;;;;;4.25;2.80;;;15.20;42.00;;;;;;5053768;28;20216;-50
2023/01/07 11:01:31;;;;;;;4.00;3.20;;;15.20;42.00;;;;;;5053465;28;20200;-50
2023/01/07 11:03:58;;;;;;;4.40;3.30;;;15.30;41.90;;;;;;5053733;28;20157;-50
2023/01/07 11:06:49;;;;;;;4.43;3.60;;;15.40;41.90;;;;;;5053365;28;20165;-50
2023/01/07 11:09:35;;;;;;;6.13;4.13;;;15.40;41.70;;;;;;5053394;28;20177;-50
2023/01/07 11:12:10;;;;;;;6.18;4.25;;;15.60;41.70;;;;;;5053401;28;20165;-51
2023/01/07 11:14:40;;;;;;;5.30;4.13;;;15.80;41.70;;;;;;5053243;28;20157;-50
2023/01/07 11:17:43;;;;;;;4.00;2.90;;;16.10;41.10;;;;;;5053286;28;20259;-50
2023/01/07 11:20:09;;;;;;;8.35;3.83;;;16.30;40.70;;;;;;5051998;28;20269;-50
2023/01/07 11:22:37;;;;;;;3.60;3.07;;;16.50;40.00;;;;;;5053236;28;20572;-51
2023/01/07 11:25:23;;;;;;;4.88;3.38;;;16.50;39.90;;;;;;5052934;28;20939;-51
2023/01/07 11:27:49;;;;;;;5.45;4.65;;;16.60;40.20;;;;;;5049191;28;20235;-51
2023/01/07 11:30:27;;;;;;;6.03;3.60;;;16.70;39.70;;;;;;5052955;28;20185;-50
2023/01/07 11:33:03;;;;;;;5.32;4.53;;;16.80;39.40;;;;;;5052928;28;20164;-51
2023/01/07 11:35:29;;;;;;;5.15;4.07;;;16.80;39.70;;;;;;5052693;28;20149;-51
2023/01/07 11:37:56;;;;;;;4.28;3.88;;;16.90;39.50;;;;;;5052789;28;20181;-51
2023/01/07 11:40:29;;;;;;;4.70;3.70;;;17.10;39.70;;;;;;5052812;28;20272;-50
2023/01/07 11:42:58;;;;;;;3.78;3.30;;;17.20;38.80;;;;;;5051704;28;20363;-51
2023/01/07 11:45:47;;;;;;;5.55;3.60;;;17.40;39.20;;;;;;5052121;28;20165;-51
2023/01/07 11:48:30;;;;;;;4.38;3.70;;;17.40;37.60;;;;;;5052863;28;20153;-50
2023/01/07 11:50:58;;;;;;;5.32;3.45;;;17.30;38.30;;;;;;5052665;28;20277;-51
2023/01/07 11:53:49;;;;;;;4.30;2.95;;;17.10;38.40;;;;;;5052637;28;20170;-51
2023/01/07 11:56:28;;;;;;;3.58;3.10;;;17.00;38.20;;;;;;5052456;28;20245;-50
2023/01/07 11:59:14;;;;;;;4.55;3.42;;;16.90;38.60;;;;;;5052444;28;20548;-50
2023/01/07 12:01:46;;;;;;;3.90;3.60;;;16.80;38.90;;;;;;5052457;28;20165;-51
2023/01/07 12:04:20;;;;;;;4.00;2.78;;;16.60;39.00;;;;;;5052385;28;20173;-51
2023/01/07 12:06:48;;;;;;;3.60;3.00;;;16.60;38.70;;;;;;5052146;28;20275;-50
2023/01/07 12:09:20;;;;;;;3.03;2.58;;;16.60;39.50;;;;;;5052264;28;20375;-50
2023/01/07 12:11:45;;;;;;;3.63;2.42;;;16.60;39.50;;;;;;5052186;28;20657;-51
2023/01/07 12:14:20;;;;;;;3.40;2.50;;;16.60;39.10;;;;;;5052163;28;20247;-51
2023/01/07 12:16:46;;;;;;;3.92;3.03;;;16.70;39.40;;;;;;5052095;28;20770;-51
2023/01/07 12:19:24;;;;;;;3.53;2.63;;;16.70;38.90;;;;;;5051911;28;20204;-51
2023/01/07 12:22:31;;;;;;;3.97;2.53;;;16.80;38.80;;;;;;5052186;28;20260;-50
2023/01/07 12:25:21;;;;;;;4.85;3.08;;;17.10;39.00;;;;;;5051633;28;20183;-50
2023/01/07 12:28:14;;;;;;;7.90;3.30;;;17.40;38.60;;;;;;5051817;28;20197;-51
2023/01/07 12:31:12;;;;;;;5.50;3.35;;;18.00;38.00;;;;;;5051968;28;20185;-51
2023/01/07 12:34:04;;;;;;;3.30;2.97;;;18.50;37.70;;;;;;5051869;28;20180;-50
2023/01/07 12:36:44;;;;;;;7.18;4.85;;;19.50;35.40;;;;;;5051159;28;20181;-51
2023/01/07 12:39:19;;;;;;;3.95;3.47;;;20.50;34.10;;;;;;5051776;28;20204;-51
2023/01/07 12:42:02;;;;;;;4.70;4.15;;;21.50;32.70;;;;;;5051977;28;20299;-51
2023/01/07 12:44:28;;;;;;;5.28;3.78;;;22.80;31.90;;;;;;5051713;28;20153;-51
2023/01/07 12:47:14;;;;;;;9.60;8.40;;;23.80;30.30;;;;;;5051886;28;20730;-51
2023/01/07 12:49:59;;;;;;;3.93;3.60;;;24.80;28.70;;;;;;5051778;28;20196;-52
2023/01/07 12:52:54;;;;;;;9.10;5.77;;;25.60;26.10;;;;;;5051906;28;20431;-52
2023/01/07 12:55:23;;;;;;;4.70;4.00;;;26.40;24.80;;;;;;5052779;28;20518;-52
2023/01/07 12:58:02;;;;;;;4.30;3.13;;;26.80;24.60;;;;;;5055865;28;20498;-51
2023/01/07 13:00:35;;;;;;;3.47;2.83;;;27.20;24.30;;;;;;5055708;28;20985;-52
2023/01/07 13:03:20;;;;;;;4.20;2.73;;;26.60;23.90;;;;;;5055992;28;20380;-52
2023/01/07 13:05:50;;;;;;;3.40;3.03;;;26.40;23.70;;;;;;5055825;28;20793;-52
2023/01/07 13:08:36;;;;;;;3.83;3.23;;;26.00;25.00;;;;;;5055885;28;20442;-52
2023/01/07 13:11:11;;;;;;;4.30;3.87;;;24.80;25.50;;;;;;5055578;28;20915;-51
2023/01/07 13:13:43;;;;;;;6.77;5.97;;;24.00;26.70;;;;;;5055712;28;20383;-51